sensor_id;sensor_type;location;lat;lon;timestamp;P1;durP1;ratioP1;P2;durP2;ratioP2
1785;SDS011;890;48.158;11.540;2023-02-28T00:01:09;1.53;;;1.43;;
1785;SDS011;890;48.158;11.540;2023-02-28T00:03:36;3.50;;;2.30;;
1785;SDS011;890;48.158;11.540;2023-02-28T00:06:03;2.03;;;1.83;;
1785;SDS011;890;48.158;11.540;2023-02-28T00:08:29;2.60;;;2.40;;
1785;SDS011;890;48.158;11.540;2023-02-28T00:10:55;4.23;;;3.80;;
1785;SDS011;890;48.158;11.540;2023-02-28T00:13:21;1.93;;;1.40;;
1785;SDS011;890;48.158;11.540;2023-02-28T00:15:46;1.50;;;1.40;;
1785;SDS011;890;48.158;11.540;2023-02-28T00:18:12;1.53;;;1.43;;
1785;SDS011;890;48.158;11.540;2023-02-28T00:20:38;4.20;;;1.93;;
1785;SDS011;890;48.158;11.540;2023-02-28T00:23:04;2.33;;;0.93;;
1785;SDS011;890;48.158;11.540;2023-02-28T00:25:29;2.40;;;1.23;;
1785;SDS011;890;48.158;11.540;2023-02-28T00:27:55;1.20;;;1.10;;
1785;SDS011;890;48.158;11.540;2023-02-28T00:30:22;1.47;;;1.23;;
1785;SDS011;890;48.158;11.540;2023-02-28T00:32:49;1.93;;;1.83;;
1785;SDS011;890;48.158;11.540;2023-02-28T00:35:15;1.80;;;1.70;;
1785;SDS011;890;48.158;11.540;2023-02-28T00:37:41;1.33;;;1.00;;
1785;SDS011;890;48.158;11.540;2023-02-28T00:40:07;2.20;;;1.57;;
1785;SDS011;890;48.158;11.540;2023-02-28T00:42:34;1.07;;;0.97;;
1785;SDS011;890;48.158;11.540;2023-02-28T00:45:00;2.50;;;2.30;;
1785;SDS011;890;48.158;11.540;2023-02-28T00:47:28;1.90;;;1.50;;
1785;SDS011;890;48.158;11.540;2023-02-28T00:49:54;2.37;;;1.47;;
1785;SDS011;890;48.158;11.540;2023-02-28T00:52:19;2.30;;;1.50;;
1785;SDS011;890;48.158;11.540;2023-02-28T00:54:46;2.53;;;2.20;;
1785;SDS011;890;48.158;11.540;2023-02-28T00:57:12;0.90;;;0.90;;
1785;SDS011;890;48.158;11.540;2023-02-28T00:59:37;2.30;;;1.80;;
1785;SDS011;890;48.158;11.540;2023-02-28T01:02:03;2.50;;;1.53;;
1785;SDS011;890;48.158;11.540;2023-02-28T01:04:28;1.57;;;1.47;;
1785;SDS011;890;48.158;11.540;2023-02-28T01:06:54;1.33;;;1.13;;
1785;SDS011;890;48.158;11.540;2023-02-28T01:09:20;1.67;;;1.57;;
1785;SDS011;890;48.158;11.540;2023-02-28T01:11:45;1.57;;;1.03;;
1785;SDS011;890;48.158;11.540;2023-02-28T01:14:12;2.30;;;1.20;;
1785;SDS011;890;48.158;11.540;2023-02-28T01:16:40;2.80;;;1.80;;
1785;SDS011;890;48.158;11.540;2023-02-28T01:19:05;6.23;;;2.00;;
1785;SDS011;890;48.158;11.540;2023-02-28T01:21:32;2.10;;;1.70;;
1785;SDS011;890;48.158;11.540;2023-02-28T01:23:57;2.03;;;1.60;;
1785;SDS011;890;48.158;11.540;2023-02-28T01:26:23;1.60;;;1.43;;
1785;SDS011;890;48.158;11.540;2023-02-28T01:28:50;2.93;;;2.73;;
1785;SDS011;890;48.158;11.540;2023-02-28T01:31:17;1.83;;;1.53;;
1785;SDS011;890;48.158;11.540;2023-02-28T01:33:43;1.70;;;1.17;;
1785;SDS011;890;48.158;11.540;2023-02-28T01:36:16;3.60;;;1.80;;
1785;SDS011;890;48.158;11.540;2023-02-28T01:38:43;0.93;;;0.93;;
1785;SDS011;890;48.158;11.540;2023-02-28T01:41:12;2.23;;;1.77;;
1785;SDS011;890;48.158;11.540;2023-02-28T01:46:51;1.77;;;1.07;;
1785;SDS011;890;48.158;11.540;2023-02-28T01:49:17;1.47;;;1.37;;
1785;SDS011;890;48.158;11.540;2023-02-28T01:51:44;1.40;;;1.30;;
1785;SDS011;890;48.158;11.540;2023-02-28T01:54:29;1.33;;;1.23;;
1785;SDS011;890;48.158;11.540;2023-02-28T01:57:09;3.13;;;1.43;;
1785;SDS011;890;48.158;11.540;2023-02-28T02:02:25;1.60;;;1.23;;
1785;SDS011;890;48.158;11.540;2023-02-28T02:04:57;1.50;;;1.40;;
1785;SDS011;890;48.158;11.540;2023-02-28T02:07:29;0.80;;;0.77;;
1785;SDS011;890;48.158;11.540;2023-02-28T02:10:11;2.20;;;1.40;;
1785;SDS011;890;48.158;11.540;2023-02-28T02:15:17;1.43;;;1.33;;
1785;SDS011;890;48.158;11.540;2023-02-28T02:17:57;2.70;;;1.60;;
1785;SDS011;890;48.158;11.540;2023-02-28T02:23:33;1.33;;;1.10;;
1785;SDS011;890;48.158;11.540;2023-02-28T02:29:18;1.53;;;1.43;;
1785;SDS011;890;48.158;11.540;2023-02-28T02:32:17;1.40;;;1.30;;
1785;SDS011;890;48.158;11.540;2023-02-28T02:40:23;3.57;;;3.27;;
1785;SDS011;890;48.158;11.540;2023-02-28T02:45:43;3.47;;;3.17;;
1785;SDS011;890;48.158;11.540;2023-02-28T02:48:16;1.27;;;1.17;;
1785;SDS011;890;48.158;11.540;2023-02-28T02:50:51;2.00;;;1.90;;
1785;SDS011;890;48.158;11.540;2023-02-28T02:53:21;1.83;;;1.47;;
1785;SDS011;890;48.158;11.540;2023-02-28T02:56:03;2.17;;;1.57;;
1785;SDS011;890;48.158;11.540;2023-02-28T02:58:31;1.33;;;0.90;;
1785;SDS011;890;48.158;11.540;2023-02-28T03:01:07;1.97;;;1.77;;
1785;SDS011;890;48.158;11.540;2023-02-28T03:03:39;1.63;;;1.23;;
1785;SDS011;890;48.158;11.540;2023-02-28T03:06:05;2.53;;;1.60;;
1785;SDS011;890;48.158;11.540;2023-02-28T03:08:34;1.90;;;1.70;;
1785;SDS011;890;48.158;11.540;2023-02-28T03:11:05;2.40;;;1.60;;
1785;SDS011;890;48.158;11.540;2023-02-28T03:23:17;1.93;;;1.80;;
1785;SDS011;890;48.158;11.540;2023-02-28T03:28:17;3.57;;;1.40;;
1785;SDS011;890;48.158;11.540;2023-02-28T03:30:51;2.00;;;1.73;;
1785;SDS011;890;48.158;11.540;2023-02-28T03:33:24;1.50;;;1.40;;
1785;SDS011;890;48.158;11.540;2023-02-28T03:35:59;1.63;;;1.53;;
1785;SDS011;890;48.158;11.540;2023-02-28T03:38:42;2.10;;;1.73;;
1785;SDS011;890;48.158;11.540;2023-02-28T03:41:22;1.63;;;1.33;;
1785;SDS011;890;48.158;11.540;2023-02-28T03:43:57;1.70;;;1.60;;
1785;SDS011;890;48.158;11.540;2023-02-28T03:46:28;3.03;;;2.00;;
1785;SDS011;890;48.158;11.540;2023-02-28T03:49:08;3.67;;;2.80;;
1785;SDS011;890;48.158;11.540;2023-02-28T03:51:40;4.00;;;2.20;;
1785;SDS011;890;48.158;11.540;2023-02-28T03:54:09;3.00;;;2.20;;
1785;SDS011;890;48.158;11.540;2023-02-28T03:56:42;2.07;;;1.70;;
1785;SDS011;890;48.158;11.540;2023-02-28T03:59:18;5.00;;;4.50;;
1785;SDS011;890;48.158;11.540;2023-02-28T04:01:50;2.13;;;1.93;;
1785;SDS011;890;48.158;11.540;2023-02-28T04:04:16;1.47;;;1.07;;
1785;SDS011;890;48.158;11.540;2023-02-28T04:06:42;2.00;;;1.80;;
1785;SDS011;890;48.158;11.540;2023-02-28T04:09:10;1.53;;;1.43;;
1785;SDS011;890;48.158;11.540;2023-02-28T04:14:04;1.60;;;1.50;;
1785;SDS011;890;48.158;11.540;2023-02-28T04:16:31;8.13;;;3.37;;
1785;SDS011;890;48.158;11.540;2023-02-28T04:18:58;11.70;;;2.67;;
1785;SDS011;890;48.158;11.540;2023-02-28T04:21:30;2.00;;;1.70;;
1785;SDS011;890;48.158;11.540;2023-02-28T04:23:58;4.93;;;3.30;;
1785;SDS011;890;48.158;11.540;2023-02-28T04:26:27;4.60;;;3.10;;
1785;SDS011;890;48.158;11.540;2023-02-28T04:28:54;1.77;;;1.67;;
1785;SDS011;890;48.158;11.540;2023-02-28T04:31:21;2.40;;;2.00;;
1785;SDS011;890;48.158;11.540;2023-02-28T04:33:46;1.60;;;1.47;;
1785;SDS011;890;48.158;11.540;2023-02-28T04:36:12;3.53;;;2.63;;
1785;SDS011;890;48.158;11.540;2023-02-28T04:38:39;2.70;;;1.60;;
1785;SDS011;890;48.158;11.540;2023-02-28T04:41:05;2.20;;;2.00;;
1785;SDS011;890;48.158;11.540;2023-02-28T04:43:31;6.00;;;3.13;;
1785;SDS011;890;48.158;11.540;2023-02-28T04:45:58;3.30;;;2.27;;
1785;SDS011;890;48.158;11.540;2023-02-28T04:48:27;2.70;;;2.50;;
1785;SDS011;890;48.158;11.540;2023-02-28T04:50:54;2.20;;;1.73;;
1785;SDS011;890;48.158;11.540;2023-02-28T04:53:20;2.43;;;1.90;;
1785;SDS011;890;48.158;11.540;2023-02-28T04:55:46;4.80;;;2.37;;
1785;SDS011;890;48.158;11.540;2023-02-28T04:58:12;3.77;;;3.47;;
1785;SDS011;890;48.158;11.540;2023-02-28T05:00:39;5.00;;;2.20;;
1785;SDS011;890;48.158;11.540;2023-02-28T05:03:04;5.33;;;2.60;;
1785;SDS011;890;48.158;11.540;2023-02-28T05:05:30;3.33;;;3.03;;
1785;SDS011;890;48.158;11.540;2023-02-28T05:07:55;3.07;;;2.20;;
1785;SDS011;890;48.158;11.540;2023-02-28T05:10:21;3.50;;;2.83;;
1785;SDS011;890;48.158;11.540;2023-02-28T05:12:47;4.80;;;4.30;;
1785;SDS011;890;48.158;11.540;2023-02-28T05:15:13;3.90;;;2.10;;
1785;SDS011;890;48.158;11.540;2023-02-28T05:17:40;5.30;;;4.17;;
1785;SDS011;890;48.158;11.540;2023-02-28T05:20:06;2.40;;;1.57;;
1785;SDS011;890;48.158;11.540;2023-02-28T05:22:35;4.07;;;3.67;;
1785;SDS011;890;48.158;11.540;2023-02-28T05:25:05;4.20;;;3.13;;
1785;SDS011;890;48.158;11.540;2023-02-28T05:27:31;2.87;;;1.90;;
1785;SDS011;890;48.158;11.540;2023-02-28T05:29:57;3.90;;;2.50;;
1785;SDS011;890;48.158;11.540;2023-02-28T05:32:23;2.03;;;1.80;;
1785;SDS011;890;48.158;11.540;2023-02-28T05:34:49;4.30;;;3.50;;
1785;SDS011;890;48.158;11.540;2023-02-28T05:37:15;4.30;;;3.67;;
1785;SDS011;890;48.158;11.540;2023-02-28T05:39:41;5.00;;;3.87;;
1785;SDS011;890;48.158;11.540;2023-02-28T05:42:08;7.07;;;4.13;;
1785;SDS011;890;48.158;11.540;2023-02-28T05:44:34;5.27;;;4.73;;
1785;SDS011;890;48.158;11.540;2023-02-28T05:47:00;4.00;;;2.60;;
1785;SDS011;890;48.158;11.540;2023-02-28T05:49:26;5.60;;;3.33;;
1785;SDS011;890;48.158;11.540;2023-02-28T05:51:51;3.13;;;2.47;;
1785;SDS011;890;48.158;11.540;2023-02-28T05:54:17;3.37;;;2.83;;
1785;SDS011;890;48.158;11.540;2023-02-28T05:56:43;3.00;;;2.47;;
1785;SDS011;890;48.158;11.540;2023-02-28T05:59:12;6.63;;;3.83;;
1785;SDS011;890;48.158;11.540;2023-02-28T06:04:13;6.90;;;4.73;;
1785;SDS011;890;48.158;11.540;2023-02-28T06:06:42;5.20;;;3.13;;
1785;SDS011;890;48.158;11.540;2023-02-28T06:09:09;10.00;;;5.30;;
1785;SDS011;890;48.158;11.540;2023-02-28T06:11:35;3.57;;;2.33;;
1785;SDS011;890;48.158;11.540;2023-02-28T06:14:01;2.13;;;1.90;;
1785;SDS011;890;48.158;11.540;2023-02-28T06:16:30;4.20;;;3.03;;
1785;SDS011;890;48.158;11.540;2023-02-28T06:18:57;6.60;;;3.80;;
1785;SDS011;890;48.158;11.540;2023-02-28T06:21:23;16.43;;;3.60;;
1785;SDS011;890;48.158;11.540;2023-02-28T06:23:49;6.03;;;4.53;;
1785;SDS011;890;48.158;11.540;2023-02-28T06:26:15;8.23;;;6.00;;
1785;SDS011;890;48.158;11.540;2023-02-28T06:28:41;4.73;;;4.20;;
1785;SDS011;890;48.158;11.540;2023-02-28T06:31:07;5.20;;;3.50;;
1785;SDS011;890;48.158;11.540;2023-02-28T06:33:34;5.63;;;3.23;;
1785;SDS011;890;48.158;11.540;2023-02-28T06:36:00;4.30;;;3.37;;
1785;SDS011;890;48.158;11.540;2023-02-28T06:38:26;4.40;;;3.30;;
1785;SDS011;890;48.158;11.540;2023-02-28T06:40:55;4.83;;;3.50;;
1785;SDS011;890;48.158;11.540;2023-02-28T06:43:22;8.10;;;4.97;;
1785;SDS011;890;48.158;11.540;2023-02-28T06:45:48;4.57;;;3.87;;
1785;SDS011;890;48.158;11.540;2023-02-28T06:48:13;2.97;;;2.77;;
1785;SDS011;890;48.158;11.540;2023-02-28T06:50:39;5.13;;;4.10;;
1785;SDS011;890;48.158;11.540;2023-02-28T06:53:05;4.97;;;3.30;;
1785;SDS011;890;48.158;11.540;2023-02-28T06:55:31;4.40;;;3.57;;
1785;SDS011;890;48.158;11.540;2023-02-28T06:57:56;4.83;;;4.10;;
1785;SDS011;890;48.158;11.540;2023-02-28T07:00:23;4.57;;;3.03;;
1785;SDS011;890;48.158;11.540;2023-02-28T07:02:49;3.60;;;2.30;;
1785;SDS011;890;48.158;11.540;2023-02-28T07:05:15;6.17;;;4.23;;
1785;SDS011;890;48.158;11.540;2023-02-28T07:07:41;8.40;;;5.40;;
1785;SDS011;890;48.158;11.540;2023-02-28T07:10:10;8.43;;;3.53;;
1785;SDS011;890;48.158;11.540;2023-02-28T07:12:36;7.47;;;4.57;;
1785;SDS011;890;48.158;11.540;2023-02-28T07:15:02;11.07;;;4.93;;
1785;SDS011;890;48.158;11.540;2023-02-28T07:17:29;4.93;;;3.10;;
1785;SDS011;890;48.158;11.540;2023-02-28T07:19:54;5.03;;;3.90;;
1785;SDS011;890;48.158;11.540;2023-02-28T07:22:21;4.20;;;3.20;;
1785;SDS011;890;48.158;11.540;2023-02-28T07:24:46;4.40;;;2.77;;
1785;SDS011;890;48.158;11.540;2023-02-28T07:27:12;8.80;;;4.73;;
1785;SDS011;890;48.158;11.540;2023-02-28T07:29:50;6.10;;;4.30;;
1785;SDS011;890;48.158;11.540;2023-02-28T07:32:17;7.03;;;4.17;;
1785;SDS011;890;48.158;11.540;2023-02-28T07:34:43;6.03;;;5.50;;
1785;SDS011;890;48.158;11.540;2023-02-28T07:37:09;12.63;;;5.30;;
1785;SDS011;890;48.158;11.540;2023-02-28T07:39:35;4.83;;;3.40;;
1785;SDS011;890;48.158;11.540;2023-02-28T07:42:03;7.53;;;3.43;;
1785;SDS011;890;48.158;11.540;2023-02-28T07:44:29;4.97;;;3.50;;
1785;SDS011;890;48.158;11.540;2023-02-28T07:46:55;6.73;;;4.00;;
1785;SDS011;890;48.158;11.540;2023-02-28T07:49:21;4.30;;;3.50;;
1785;SDS011;890;48.158;11.540;2023-02-28T07:51:46;7.23;;;5.27;;
1785;SDS011;890;48.158;11.540;2023-02-28T07:54:12;5.70;;;4.10;;
1785;SDS011;890;48.158;11.540;2023-02-28T07:56:37;11.70;;;6.03;;
1785;SDS011;890;48.158;11.540;2023-02-28T07:59:03;3.77;;;3.40;;
1785;SDS011;890;48.158;11.540;2023-02-28T08:01:28;6.60;;;4.60;;
1785;SDS011;890;48.158;11.540;2023-02-28T08:03:54;6.50;;;4.77;;
1785;SDS011;890;48.158;11.540;2023-02-28T08:06:22;5.60;;;3.83;;
1785;SDS011;890;48.158;11.540;2023-02-28T08:08:49;7.10;;;4.63;;
1785;SDS011;890;48.158;11.540;2023-02-28T08:11:15;9.10;;;5.83;;
1785;SDS011;890;48.158;11.540;2023-02-28T08:13:42;8.30;;;6.43;;
1785;SDS011;890;48.158;11.540;2023-02-28T08:16:09;5.50;;;4.77;;
1785;SDS011;890;48.158;11.540;2023-02-28T08:18:35;6.60;;;4.47;;
1785;SDS011;890;48.158;11.540;2023-02-28T08:21:07;6.80;;;5.50;;
1785;SDS011;890;48.158;11.540;2023-02-28T08:23:34;6.73;;;4.30;;
1785;SDS011;890;48.158;11.540;2023-02-28T08:26:00;6.93;;;4.63;;
1785;SDS011;890;48.158;11.540;2023-02-28T08:28:26;8.70;;;5.70;;
1785;SDS011;890;48.158;11.540;2023-02-28T08:30:51;6.43;;;5.40;;
1785;SDS011;890;48.158;11.540;2023-02-28T08:33:17;7.30;;;4.83;;
1785;SDS011;890;48.158;11.540;2023-02-28T08:35:42;6.03;;;4.43;;
1785;SDS011;890;48.158;11.540;2023-02-28T08:38:08;6.20;;;4.97;;
1785;SDS011;890;48.158;11.540;2023-02-28T08:40:33;6.33;;;5.53;;
1785;SDS011;890;48.158;11.540;2023-02-28T08:42:59;5.07;;;4.50;;
1785;SDS011;890;48.158;11.540;2023-02-28T08:45:25;7.67;;;6.60;;
1785;SDS011;890;48.158;11.540;2023-02-28T08:47:50;13.07;;;6.27;;
1785;SDS011;890;48.158;11.540;2023-02-28T08:50:17;6.53;;;4.57;;
1785;SDS011;890;48.158;11.540;2023-02-28T08:52:43;10.07;;;5.30;;
1785;SDS011;890;48.158;11.540;2023-02-28T08:55:09;7.90;;;5.23;;
1785;SDS011;890;48.158;11.540;2023-02-28T08:57:35;6.60;;;4.73;;
1785;SDS011;890;48.158;11.540;2023-02-28T09:00:01;6.63;;;5.30;;
1785;SDS011;890;48.158;11.540;2023-02-28T09:02:29;8.57;;;5.90;;
1785;SDS011;890;48.158;11.540;2023-02-28T09:04:56;7.77;;;6.10;;
1785;SDS011;890;48.158;11.540;2023-02-28T09:07:22;8.40;;;4.43;;
1785;SDS011;890;48.158;11.540;2023-02-28T09:09:49;13.90;;;7.90;;
1785;SDS011;890;48.158;11.540;2023-02-28T09:12:22;12.07;;;6.33;;
1785;SDS011;890;48.158;11.540;2023-02-28T09:14:49;9.90;;;6.43;;
1785;SDS011;890;48.158;11.540;2023-02-28T09:17:14;6.50;;;4.83;;
1785;SDS011;890;48.158;11.540;2023-02-28T09:19:40;5.70;;;4.10;;
1785;SDS011;890;48.158;11.540;2023-02-28T09:22:06;5.10;;;4.27;;
1785;SDS011;890;48.158;11.540;2023-02-28T09:24:31;7.10;;;5.80;;
1785;SDS011;890;48.158;11.540;2023-02-28T09:26:57;9.13;;;6.13;;
1785;SDS011;890;48.158;11.540;2023-02-28T09:29:22;7.23;;;6.00;;
1785;SDS011;890;48.158;11.540;2023-02-28T09:31:48;9.93;;;5.80;;
1785;SDS011;890;48.158;11.540;2023-02-28T09:34:14;6.63;;;5.67;;
1785;SDS011;890;48.158;11.540;2023-02-28T09:36:42;5.17;;;4.63;;
1785;SDS011;890;48.158;11.540;2023-02-28T09:39:08;8.60;;;6.03;;
1785;SDS011;890;48.158;11.540;2023-02-28T09:41:38;9.30;;;6.40;;
1785;SDS011;890;48.158;11.540;2023-02-28T09:44:57;7.07;;;6.30;;
1785;SDS011;890;48.158;11.540;2023-02-28T09:49:52;10.13;;;6.70;;
1785;SDS011;890;48.158;11.540;2023-02-28T09:52:21;12.50;;;6.00;;
1785;SDS011;890;48.158;11.540;2023-02-28T09:54:52;10.80;;;6.00;;
1785;SDS011;890;48.158;11.540;2023-02-28T10:02:46;8.73;;;6.30;;
1785;SDS011;890;48.158;11.540;2023-02-28T10:05:24;11.07;;;8.23;;
1785;SDS011;890;48.158;11.540;2023-02-28T10:07:58;21.67;;;6.63;;
1785;SDS011;890;48.158;11.540;2023-02-28T10:13:13;10.80;;;7.63;;
1785;SDS011;890;48.158;11.540;2023-02-28T10:16:34;8.73;;;6.23;;
1785;SDS011;890;48.158;11.540;2023-02-28T10:22:02;7.80;;;5.63;;
1785;SDS011;890;48.158;11.540;2023-02-28T10:29:43;13.03;;;8.43;;
1785;SDS011;890;48.158;11.540;2023-02-28T10:32:11;8.37;;;5.90;;
1785;SDS011;890;48.158;11.540;2023-02-28T10:34:40;11.50;;;7.23;;
1785;SDS011;890;48.158;11.540;2023-02-28T10:37:06;13.10;;;7.20;;
1785;SDS011;890;48.158;11.540;2023-02-28T10:42:03;9.00;;;6.60;;
1785;SDS011;890;48.158;11.540;2023-02-28T10:44:30;8.03;;;5.50;;
1785;SDS011;890;48.158;11.540;2023-02-28T10:46:55;10.40;;;8.50;;
1785;SDS011;890;48.158;11.540;2023-02-28T10:49:22;8.67;;;7.63;;
1785;SDS011;890;48.158;11.540;2023-02-28T10:51:54;16.23;;;5.70;;
1785;SDS011;890;48.158;11.540;2023-02-28T10:54:32;15.43;;;7.87;;
1785;SDS011;890;48.158;11.540;2023-02-28T10:59:31;14.77;;;8.33;;
1785;SDS011;890;48.158;11.540;2023-02-28T11:01:57;13.60;;;8.43;;
1785;SDS011;890;48.158;11.540;2023-02-28T11:07:39;9.70;;;7.80;;
1785;SDS011;890;48.158;11.540;2023-02-28T11:09:50;9.33;;;7.70;;
1785;SDS011;890;48.158;11.540;2023-02-28T11:12:28;10.10;;;6.90;;
1785;SDS011;890;48.158;11.540;2023-02-28T11:15:01;12.00;;;8.00;;
1785;SDS011;890;48.158;11.540;2023-02-28T11:17:43;10.33;;;7.73;;
1785;SDS011;890;48.158;11.540;2023-02-28T11:20:10;12.00;;;7.73;;
1785;SDS011;890;48.158;11.540;2023-02-28T11:22:46;11.40;;;7.93;;
1785;SDS011;890;48.158;11.540;2023-02-28T11:25:19;9.43;;;7.87;;
1785;SDS011;890;48.158;11.540;2023-02-28T11:27:50;14.27;;;10.33;;
1785;SDS011;890;48.158;11.540;2023-02-28T11:30:25;15.80;;;12.87;;
1785;SDS011;890;48.158;11.540;2023-02-28T11:33:18;13.83;;;12.33;;
1785;SDS011;890;48.158;11.540;2023-02-28T11:35:49;15.33;;;11.80;;
1785;SDS011;890;48.158;11.540;2023-02-28T11:38:15;14.77;;;11.93;;
1785;SDS011;890;48.158;11.540;2023-02-28T11:46:40;16.00;;;10.90;;
1785;SDS011;890;48.158;11.540;2023-02-28T12:05:51;12.90;;;10.17;;
1785;SDS011;890;48.158;11.540;2023-02-28T12:11:26;12.43;;;11.13;;
1785;SDS011;890;48.158;11.540;2023-02-28T12:14:32;12.83;;;10.37;;
1785;SDS011;890;48.158;11.540;2023-02-28T12:28:17;14.13;;;12.13;;
1785;SDS011;890;48.158;11.540;2023-02-28T12:30:53;11.60;;;10.30;;
1785;SDS011;890;48.158;11.540;2023-02-28T12:33:50;15.30;;;11.70;;
1785;SDS011;890;48.158;11.540;2023-02-28T12:36:19;14.00;;;11.70;;
1785;SDS011;890;48.158;11.540;2023-02-28T12:38:58;14.13;;;12.13;;
1785;SDS011;890;48.158;11.540;2023-02-28T12:44:06;14.10;;;11.70;;
1785;SDS011;890;48.158;11.540;2023-02-28T12:46:43;15.00;;;12.27;;
1785;SDS011;890;48.158;11.540;2023-02-28T12:49:27;14.83;;;12.70;;
1785;SDS011;890;48.158;11.540;2023-02-28T12:52:06;16.27;;;13.37;;
1785;SDS011;890;48.158;11.540;2023-02-28T12:54:38;14.00;;;12.57;;
1785;SDS011;890;48.158;11.540;2023-02-28T12:59:37;13.77;;;11.90;;
1785;SDS011;890;48.158;11.540;2023-02-28T13:05:07;19.40;;;12.67;;
1785;SDS011;890;48.158;11.540;2023-02-28T13:07:58;14.07;;;11.30;;
1785;SDS011;890;48.158;11.540;2023-02-28T13:10:39;15.73;;;12.57;;
1785;SDS011;890;48.158;11.540;2023-02-28T13:13:18;13.70;;;11.90;;
1785;SDS011;890;48.158;11.540;2023-02-28T13:18:37;14.00;;;11.90;;
1785;SDS011;890;48.158;11.540;2023-02-28T13:21:08;14.00;;;11.87;;
1785;SDS011;890;48.158;11.540;2023-02-28T13:26:22;13.00;;;11.70;;
1785;SDS011;890;48.158;11.540;2023-02-28T13:31:13;16.17;;;12.83;;
1785;SDS011;890;48.158;11.540;2023-02-28T13:36:23;16.20;;;12.47;;
1785;SDS011;890;48.158;11.540;2023-02-28T13:39:00;14.43;;;12.87;;
1785;SDS011;890;48.158;11.540;2023-02-28T13:41:48;13.70;;;12.20;;
1785;SDS011;890;48.158;11.540;2023-02-28T13:44:21;13.03;;;11.60;;
1785;SDS011;890;48.158;11.540;2023-02-28T13:51:48;19.00;;;13.40;;
1785;SDS011;890;48.158;11.540;2023-02-28T14:02:37;16.43;;;12.77;;
1785;SDS011;890;48.158;11.540;2023-02-28T14:05:15;15.50;;;12.63;;
1785;SDS011;890;48.158;11.540;2023-02-28T14:10:20;14.10;;;12.13;;
1785;SDS011;890;48.158;11.540;2023-02-28T14:15:38;16.83;;;12.90;;
1785;SDS011;890;48.158;11.540;2023-02-28T14:18:25;16.47;;;10.20;;
1785;SDS011;890;48.158;11.540;2023-02-28T14:20:58;14.50;;;12.30;;
1785;SDS011;890;48.158;11.540;2023-02-28T14:23:46;14.57;;;12.90;;
1785;SDS011;890;48.158;11.540;2023-02-28T14:26:55;13.90;;;12.40;;
1785;SDS011;890;48.158;11.540;2023-02-28T14:29:37;14.87;;;13.10;;
1785;SDS011;890;48.158;11.540;2023-02-28T14:32:27;14.13;;;12.63;;
1785;SDS011;890;48.158;11.540;2023-02-28T14:37:45;16.10;;;13.97;;
1785;SDS011;890;48.158;11.540;2023-02-28T14:40:17;15.30;;;12.33;;
1785;SDS011;890;48.158;11.540;2023-02-28T14:42:56;17.40;;;13.63;;
1785;SDS011;890;48.158;11.540;2023-02-28T14:45:24;15.80;;;13.00;;
1785;SDS011;890;48.158;11.540;2023-02-28T14:47:52;16.33;;;12.80;;
1785;SDS011;890;48.158;11.540;2023-02-28T14:50:22;13.23;;;11.83;;
1785;SDS011;890;48.158;11.540;2023-02-28T14:52:59;13.37;;;11.97;;
1785;SDS011;890;48.158;11.540;2023-02-28T14:55:27;15.30;;;12.27;;
1785;SDS011;890;48.158;11.540;2023-02-28T15:00:33;16.03;;;13.53;;
1785;SDS011;890;48.158;11.540;2023-02-28T15:03:17;14.90;;;13.27;;
1785;SDS011;890;48.158;11.540;2023-02-28T15:05:57;15.30;;;12.53;;
1785;SDS011;890;48.158;11.540;2023-02-28T15:08:24;16.40;;;13.07;;
1785;SDS011;890;48.158;11.540;2023-02-28T15:10:52;15.73;;;14.03;;
1785;SDS011;890;48.158;11.540;2023-02-28T15:13:22;14.10;;;12.60;;
1785;SDS011;890;48.158;11.540;2023-02-28T15:15:52;14.90;;;12.93;;
1785;SDS011;890;48.158;11.540;2023-02-28T15:18:43;16.13;;;13.03;;
1785;SDS011;890;48.158;11.540;2023-02-28T15:21:21;14.10;;;12.37;;
1785;SDS011;890;48.158;11.540;2023-02-28T15:24:15;17.53;;;13.20;;
1785;SDS011;890;48.158;11.540;2023-02-28T15:27:00;16.60;;;14.03;;
1785;SDS011;890;48.158;11.540;2023-02-28T15:29:29;11.73;;;10.50;;
1785;SDS011;890;48.158;11.540;2023-02-28T15:32:06;17.50;;;13.37;;
1785;SDS011;890;48.158;11.540;2023-02-28T15:34:43;13.90;;;12.47;;
1785;SDS011;890;48.158;11.540;2023-02-28T15:39:55;14.63;;;12.50;;
1785;SDS011;890;48.158;11.540;2023-02-28T15:42:23;13.73;;;9.50;;
1785;SDS011;890;48.158;11.540;2023-02-28T15:44:54;14.60;;;13.00;;
1785;SDS011;890;48.158;11.540;2023-02-28T15:47:20;12.57;;;11.13;;
1785;SDS011;890;48.158;11.540;2023-02-28T15:49:52;13.73;;;12.33;;
1785;SDS011;890;48.158;11.540;2023-02-28T15:57:50;15.87;;;13.40;;
1785;SDS011;890;48.158;11.540;2023-02-28T16:00:22;11.33;;;9.63;;
1785;SDS011;890;48.158;11.540;2023-02-28T16:02:49;15.53;;;13.40;;
1785;SDS011;890;48.158;11.540;2023-02-28T16:05:21;16.43;;;12.80;;
1785;SDS011;890;48.158;11.540;2023-02-28T16:07:53;13.20;;;9.67;;
1785;SDS011;890;48.158;11.540;2023-02-28T16:10:20;13.83;;;12.00;;
1785;SDS011;890;48.158;11.540;2023-02-28T16:12:47;15.40;;;13.47;;
1785;SDS011;890;48.158;11.540;2023-02-28T16:15:20;15.00;;;13.40;;
1785;SDS011;890;48.158;11.540;2023-02-28T16:17:48;10.43;;;6.93;;
1785;SDS011;890;48.158;11.540;2023-02-28T16:20:15;9.87;;;7.17;;
1785;SDS011;890;48.158;11.540;2023-02-28T16:22:43;14.90;;;12.43;;
1785;SDS011;890;48.158;11.540;2023-02-28T16:25:12;20.23;;;13.70;;
1785;SDS011;890;48.158;11.540;2023-02-28T16:27:39;15.37;;;13.30;;
1785;SDS011;890;48.158;11.540;2023-02-28T16:30:05;15.17;;;13.47;;
1785;SDS011;890;48.158;11.540;2023-02-28T16:32:35;15.50;;;12.63;;
1785;SDS011;890;48.158;11.540;2023-02-28T16:35:01;16.50;;;13.57;;
1785;SDS011;890;48.158;11.540;2023-02-28T16:37:27;14.57;;;13.03;;
1785;SDS011;890;48.158;11.540;2023-02-28T16:39:53;11.03;;;6.60;;
1785;SDS011;890;48.158;11.540;2023-02-28T16:42:23;6.67;;;5.80;;
1785;SDS011;890;48.158;11.540;2023-02-28T16:44:52;9.03;;;5.90;;
1785;SDS011;890;48.158;11.540;2023-02-28T16:47:19;16.70;;;13.97;;
1785;SDS011;890;48.158;11.540;2023-02-28T16:49:45;16.27;;;14.03;;
1785;SDS011;890;48.158;11.540;2023-02-28T16:52:12;21.63;;;9.93;;
1785;SDS011;890;48.158;11.540;2023-02-28T16:54:39;7.73;;;5.37;;
1785;SDS011;890;48.158;11.540;2023-02-28T16:57:05;8.03;;;5.53;;
1785;SDS011;890;48.158;11.540;2023-02-28T16:59:37;6.60;;;5.70;;
1785;SDS011;890;48.158;11.540;2023-02-28T17:02:07;18.50;;;13.50;;
1785;SDS011;890;48.158;11.540;2023-02-28T17:04:37;9.10;;;6.37;;
1785;SDS011;890;48.158;11.540;2023-02-28T17:07:03;9.53;;;6.60;;
1785;SDS011;890;48.158;11.540;2023-02-28T17:09:28;15.20;;;12.73;;
1785;SDS011;890;48.158;11.540;2023-02-28T17:11:54;10.13;;;5.60;;
1785;SDS011;890;48.158;11.540;2023-02-28T17:14:21;10.83;;;5.43;;
1785;SDS011;890;48.158;11.540;2023-02-28T17:16:48;11.20;;;6.43;;
1785;SDS011;890;48.158;11.540;2023-02-28T17:19:14;16.13;;;13.27;;
1785;SDS011;890;48.158;11.540;2023-02-28T17:21:42;15.10;;;12.13;;
1785;SDS011;890;48.158;11.540;2023-02-28T17:24:08;8.70;;;7.03;;
1785;SDS011;890;48.158;11.540;2023-02-28T17:26:37;9.53;;;6.83;;
1785;SDS011;890;48.158;11.540;2023-02-28T17:29:05;9.93;;;6.83;;
1785;SDS011;890;48.158;11.540;2023-02-28T17:31:40;7.10;;;5.10;;
1785;SDS011;890;48.158;11.540;2023-02-28T17:34:06;9.40;;;5.67;;
1785;SDS011;890;48.158;11.540;2023-02-28T17:36:31;6.93;;;5.90;;
1785;SDS011;890;48.158;11.540;2023-02-28T17:38:58;9.43;;;7.10;;
1785;SDS011;890;48.158;11.540;2023-02-28T17:41:24;12.47;;;10.30;;
1785;SDS011;890;48.158;11.540;2023-02-28T17:43:51;9.03;;;6.90;;
1785;SDS011;890;48.158;11.540;2023-02-28T17:46:18;13.67;;;7.60;;
1785;SDS011;890;48.158;11.540;2023-02-28T17:48:46;9.80;;;6.40;;
1785;SDS011;890;48.158;11.540;2023-02-28T17:51:16;17.93;;;13.93;;
1785;SDS011;890;48.158;11.540;2023-02-28T17:53:43;15.50;;;13.67;;
1785;SDS011;890;48.158;11.540;2023-02-28T17:56:19;16.83;;;13.70;;
1785;SDS011;890;48.158;11.540;2023-02-28T17:58:50;11.30;;;6.43;;